createdAt,value
2018-12-31T00:02:16.777Z,102425.23
2018-12-31T00:04:42.785Z,102417.34
2018-12-31T00:07:09.326Z,102356.76
2018-12-31T00:09:35.600Z,102412.77
2018-12-31T00:12:01.602Z,102418.70
2018-12-31T00:14:27.623Z,102413.80
2018-12-31T00:16:53.514Z,102410.69
2018-12-31T00:19:19.462Z,102403.63
2018-12-31T00:21:45.502Z,102400.14
2018-12-31T00:24:11.430Z,102407.38
2018-12-31T00:26:37.329Z,102407.25
2018-12-31T00:29:03.262Z,102416.11
2018-12-31T00:31:29.180Z,102412.70
2018-12-31T00:33:55.116Z,102410.44
2018-12-31T00:36:21.034Z,102409.91
2018-12-31T00:38:46.944Z,102406.03
2018-12-31T00:41:12.929Z,102392.50
2018-12-31T00:43:38.894Z,102389.42
2018-12-31T00:46:04.801Z,102390.19
2018-12-31T00:48:30.701Z,102400.00
2018-12-31T00:50:56.639Z,102396.35
2018-12-31T00:53:22.556Z,102394.92
2018-12-31T00:55:48.493Z,102390.52
2018-12-31T00:58:14.389Z,102386.64
2018-12-31T01:00:40.507Z,102389.63
2018-12-31T01:03:06.540Z,102381.73
2018-12-31T01:05:32.430Z,102382.63
2018-12-31T01:07:58.677Z,102387.80
2018-12-31T01:10:25.055Z,102387.80
2018-12-31T01:12:50.987Z,102377.98
2018-12-31T01:15:16.889Z,102376.91
2018-12-31T01:17:42.795Z,102321.49
2018-12-31T01:20:08.796Z,102383.63
2018-12-31T01:22:34.866Z,102388.20
2018-12-31T01:25:00.975Z,102375.54
2018-12-31T01:27:26.900Z,102384.33
2018-12-31T01:29:52.835Z,102382.96
2018-12-31T01:32:18.749Z,102384.72
2018-12-31T01:34:44.772Z,102383.89
2018-12-31T01:37:10.788Z,102377.93
2018-12-31T01:39:36.684Z,102377.44
2018-12-31T01:42:02.818Z,102375.14
2018-12-31T01:44:28.826Z,102371.03
2018-12-31T01:46:54.849Z,102373.91
2018-12-31T01:49:20.763Z,102381.02
2018-12-31T01:51:46.676Z,102371.05
2018-12-31T01:54:12.567Z,102361.50
2018-12-31T01:56:38.503Z,102356.34
2018-12-31T01:59:04.521Z,102356.34
2018-12-31T02:01:30.524Z,102355.27
2018-12-31T02:03:56.453Z,102345.95
2018-12-31T02:06:22.468Z,102351.30
2018-12-31T02:08:48.690Z,102346.73
2018-12-31T02:11:14.830Z,102344.43
2018-12-31T02:13:40.757Z,102348.70
2018-12-31T02:16:06.657Z,102351.75
2018-12-31T02:18:32.568Z,102354.00
2018-12-31T02:20:58.575Z,102354.47
2018-12-31T02:23:24.547Z,102352.25
2018-12-31T02:25:50.459Z,102352.25
2018-12-31T02:28:16.406Z,102351.42
2018-12-31T02:30:42.806Z,102353.61
2018-12-31T02:33:08.713Z,102342.39
2018-12-31T02:35:34.920Z,102344.57
2018-12-31T02:38:00.921Z,102341.92
2018-12-31T02:40:26.955Z,102339.27
2018-12-31T02:42:52.843Z,102336.94
2018-12-31T02:45:18.858Z,102331.17
2018-12-31T02:47:44.879Z,102318.52
2018-12-31T02:50:10.892Z,102321.03
2018-12-31T02:52:36.921Z,102328.37
2018-12-31T02:55:03.238Z,102330.00
2018-12-31T02:57:29.151Z,102329.78
2018-12-31T02:59:55.086Z,102336.02
2018-12-31T03:02:20.984Z,102330.08
2018-12-31T03:04:46.972Z,102330.00
2018-12-31T03:07:12.918Z,102330.43
2018-12-31T03:09:39.017Z,102327.28
2018-12-31T03:12:05.207Z,102317.71
2018-12-31T03:14:31.131Z,102316.74
2018-12-31T03:16:57.186Z,102317.64
2018-12-31T03:19:23.069Z,102314.09
2018-12-31T03:21:48.978Z,102308.86
2018-12-31T03:24:14.903Z,102301.12
2018-12-31T03:26:40.865Z,102292.98
2018-12-31T03:29:06.772Z,102289.11
2018-12-31T03:31:32.696Z,102291.69
2018-12-31T03:33:58.691Z,102292.77
2018-12-31T03:36:24.691Z,102292.09
2018-12-31T03:38:50.661Z,102291.88
2018-12-31T03:41:16.680Z,102291.88
2018-12-31T03:43:42.672Z,102290.91
2018-12-31T03:46:08.708Z,102281.05
2018-12-31T03:48:34.604Z,102269.45
2018-12-31T03:51:00.554Z,102270.87
2018-12-31T03:53:26.462Z,102263.14
2018-12-31T03:55:52.469Z,102251.53
2018-12-31T03:58:18.399Z,102249.45
2018-12-31T04:00:44.276Z,102244.16
2018-12-31T04:03:10.202Z,102245.77
2018-12-31T04:05:36.212Z,102244.73
2018-12-31T04:08:02.317Z,102235.09
2018-12-31T04:10:28.783Z,102235.81
2018-12-31T04:12:55.070Z,102235.67
2018-12-31T04:15:21.110Z,102233.37
2018-12-31T04:17:47.013Z,102234.59
2018-12-31T04:20:12.912Z,102240.97
2018-12-31T04:22:38.858Z,102241.44
2018-12-31T04:25:04.970Z,102232.02
2018-12-31T04:27:30.973Z,102222.56
2018-12-31T04:29:56.901Z,102221.27
2018-12-31T04:32:22.839Z,102210.10
2018-12-31T04:34:48.777Z,102211.71
2018-12-31T04:37:14.656Z,102211.10
2018-12-31T04:39:40.647Z,102210.46
2018-12-31T04:42:06.606Z,102200.00
2018-12-31T04:44:32.486Z,102187.94
2018-12-31T04:46:58.408Z,102188.73
2018-12-31T04:49:24.341Z,102190.45
2018-12-31T04:51:50.467Z,102184.32
2018-12-31T04:54:16.347Z,102180.70
2018-12-31T04:56:42.393Z,102185.39
2018-12-31T04:59:08.325Z,102185.39
2018-12-31T05:01:34.211Z,102176.37
2018-12-31T05:04:00.166Z,102176.30
2018-12-31T05:06:26.068Z,102174.19
2018-12-31T05:08:52.158Z,102166.06
2018-12-31T05:11:18.404Z,102166.06
2018-12-31T05:13:44.784Z,102157.80
2018-12-31T05:16:10.852Z,102156.08
2018-12-31T05:18:36.718Z,102151.81
2018-12-31T05:21:02.836Z,102157.05
2018-12-31T05:23:28.865Z,102152.35
2018-12-31T05:25:54.812Z,102158.33
2018-12-31T05:28:20.750Z,102151.24
2018-12-31T05:30:46.658Z,102149.31
2018-12-31T05:33:12.693Z,102144.52
2018-12-31T05:35:38.591Z,102150.45
2018-12-31T05:38:04.591Z,102145.80
2018-12-31T05:40:30.510Z,102136.78
2018-12-31T05:42:56.432Z,102131.70
2018-12-31T05:45:22.340Z,102140.72
2018-12-31T05:47:48.248Z,102129.27
2018-12-31T05:50:14.274Z,102113.38
2018-12-31T05:52:40.192Z,102103.89
2018-12-31T05:55:06.209Z,102110.01
2018-12-31T05:57:32.138Z,102105.64
2018-12-31T05:59:58.066Z,102106.93
2018-12-31T06:02:23.971Z,102092.36
2018-12-31T06:04:49.911Z,102087.67
2018-12-31T06:07:16.142Z,102078.30
2018-12-31T06:09:42.161Z,102079.55
2018-12-31T06:12:08.268Z,102081.59
2018-12-31T06:14:34.354Z,102082.31
2018-12-31T06:17:00.297Z,102076.36
2018-12-31T06:19:26.188Z,101954.59
2018-12-31T06:21:52.223Z,102064.48
2018-12-31T06:24:18.157Z,102062.90
2018-12-31T06:26:44.063Z,102053.95
2018-12-31T06:29:09.980Z,102056.73
2018-12-31T06:31:35.888Z,102056.80
2018-12-31T06:34:01.923Z,102057.50
2018-12-31T06:36:27.803Z,102040.52
2018-12-31T06:38:53.737Z,102040.79
2018-12-31T06:41:19.684Z,102031.97
2018-12-31T06:43:45.566Z,102029.25
2018-12-31T06:46:11.481Z,102014.88
2018-12-31T06:48:37.378Z,102008.69
2018-12-31T06:51:03.432Z,101997.73
2018-12-31T06:53:29.454Z,101992.77
2018-12-31T06:55:55.364Z,101988.30
2018-12-31T06:58:21.361Z,101988.67
2018-12-31T07:00:47.401Z,101974.27
2018-12-31T07:03:13.343Z,101974.27
2018-12-31T07:05:39.383Z,101965.67
2018-12-31T07:08:05.405Z,101961.82
2018-12-31T07:10:31.313Z,101954.03
2018-12-31T07:12:57.456Z,101947.47
2018-12-31T07:15:23.737Z,101933.19
2018-12-31T07:17:49.776Z,101929.75
2018-12-31T07:20:15.750Z,101921.79
2018-12-31T07:22:41.970Z,101908.75
2018-12-31T07:25:07.981Z,101910.38
2018-12-31T07:27:33.952Z,101911.14
2018-12-31T07:29:59.962Z,101905.31
2018-12-31T07:32:25.961Z,101901.77
2018-12-31T07:34:51.986Z,101886.91
2018-12-31T07:37:17.894Z,101892.73
2018-12-31T07:39:43.904Z,101875.78
2018-12-31T07:42:09.817Z,101863.05
2018-12-31T07:44:35.783Z,101858.09
2018-12-31T07:47:01.698Z,101846.69
2018-12-31T07:49:27.584Z,101845.65
2018-12-31T07:51:53.540Z,101832.06
2018-12-31T07:54:19.485Z,101825.84
2018-12-31T07:56:45.402Z,101818.36
2018-12-31T07:59:11.329Z,101815.15
2018-12-31T08:01:37.220Z,101804.58
2018-12-31T08:04:03.126Z,101804.27
2018-12-31T08:06:29.028Z,101794.94
2018-12-31T08:08:54.960Z,101803.78
2018-12-31T08:11:20.845Z,101793.55
2018-12-31T08:13:47.050Z,101795.44
2018-12-31T08:16:13.146Z,101787.84
2018-12-31T08:18:39.208Z,101774.97
2018-12-31T08:21:05.120Z,101769.11
2018-12-31T08:23:31.121Z,101748.87
2018-12-31T08:25:57.078Z,101748.67
2018-12-31T08:28:22.988Z,101738.44
2018-12-31T08:30:48.907Z,101734.75
2018-12-31T08:33:14.847Z,101726.73
2018-12-31T08:35:40.748Z,101725.79
2018-12-31T08:38:06.752Z,101701.28
2018-12-31T08:40:32.803Z,101695.38
2018-12-31T08:42:58.723Z,101683.12
2018-12-31T08:45:24.652Z,101670.06
2018-12-31T08:47:50.601Z,101662.16
2018-12-31T08:50:16.493Z,101647.97
2018-12-31T08:52:42.392Z,101627.13
2018-12-31T08:55:08.332Z,101629.67
2018-12-31T08:57:34.317Z,101607.52
2018-12-31T09:00:00.268Z,101597.97
2018-12-31T09:02:26.299Z,101584.45
2018-12-31T09:04:52.306Z,101565.16
2018-12-31T09:07:18.227Z,101549.75
2018-12-31T09:09:44.145Z,101528.63
2018-12-31T09:12:10.146Z,101520.51
2018-12-31T09:14:36.379Z,101527.63
2018-12-31T09:17:02.609Z,101523.34
2018-12-31T09:19:28.512Z,101511.70
2018-12-31T09:21:54.529Z,101510.47
2018-12-31T09:24:20.468Z,101474.81
2018-12-31T09:26:46.371Z,101474.81
2018-12-31T09:29:12.429Z,101417.29
2018-12-31T09:31:38.352Z,101417.29
2018-12-31T09:34:04.303Z,101464.81
2018-12-31T09:36:30.216Z,101454.32
2018-12-31T09:38:56.276Z,101437.70
2018-12-31T09:41:22.226Z,101435.05
2018-12-31T09:43:48.127Z,101420.64
2018-12-31T09:46:14.212Z,101411.45
2018-12-31T09:48:40.238Z,101388.25
2018-12-31T09:51:06.163Z,101374.25
2018-12-31T09:53:32.106Z,101377.66
2018-12-31T09:55:58.011Z,101368.89
2018-12-31T09:58:24.121Z,101361.83
2018-12-31T10:00:50.178Z,101353.08
2018-12-31T10:03:16.090Z,101332.92
2018-12-31T10:05:42.078Z,101335.02
2018-12-31T10:08:08.099Z,101315.75
2018-12-31T10:10:34.106Z,101299.52
2018-12-31T10:13:00.037Z,101288.10
2018-12-31T10:15:27.383Z,101284.99
2018-12-31T10:17:53.424Z,101263.49
2018-12-31T10:20:19.458Z,101255.11
2018-12-31T10:22:45.385Z,101244.55
2018-12-31T10:25:11.401Z,101233.55
2018-12-31T10:27:37.315Z,101229.13
2018-12-31T10:30:03.410Z,101216.79
2018-12-31T10:32:29.337Z,101199.22
2018-12-31T10:34:55.215Z,101180.76
2018-12-31T10:37:22.199Z,101190.74
2018-12-31T10:39:48.266Z,101175.83
2018-12-31T10:42:14.288Z,101173.11
2018-12-31T10:44:40.279Z,101171.76
2018-12-31T10:47:06.350Z,101160.73
2018-12-31T10:49:32.473Z,101140.97
2018-12-31T10:51:58.380Z,101118.14
2018-12-31T10:54:24.309Z,101116.78
2018-12-31T10:56:50.243Z,101107.10
2018-12-31T10:59:16.130Z,101093.92
2018-12-31T11:01:42.029Z,101071.16
2018-12-31T11:04:07.953Z,101065.88
2018-12-31T11:06:33.989Z,101047.52
2018-12-31T11:09:00.177Z,101028.27
2018-12-31T11:11:26.205Z,101020.83
2018-12-31T11:13:52.123Z,101003.37
2018-12-31T11:16:18.151Z,100988.52
2018-12-31T11:18:44.293Z,100967.50
2018-12-31T11:21:10.182Z,100950.44
2018-12-31T11:23:36.097Z,100946.05
2018-12-31T11:26:02.207Z,100953.92
2018-12-31T11:28:28.178Z,100925.50
2018-12-31T11:30:54.096Z,100923.41
2018-12-31T11:33:19.999Z,100923.88
2018-12-31T11:35:45.933Z,100908.14
2018-12-31T11:38:11.840Z,100909.86
2018-12-31T11:40:37.988Z,100908.17
2018-12-31T11:43:04.090Z,100897.28
2018-12-31T11:45:29.987Z,100886.34
2018-12-31T11:47:55.991Z,100864.90
2018-12-31T11:50:22.012Z,100878.00
2018-12-31T11:52:47.958Z,100836.89
2018-12-31T11:55:13.845Z,100836.42
2018-12-31T11:57:39.733Z,100828.98
2018-12-31T12:00:07.684Z,100810.06
2018-12-31T12:02:33.687Z,100801.72
2018-12-31T12:04:59.611Z,100783.33
2018-12-31T12:07:25.513Z,100777.20
2018-12-31T12:09:51.449Z,100743.06
2018-12-31T12:12:17.723Z,100753.61
2018-12-31T12:14:43.666Z,100735.70
2018-12-31T12:17:09.771Z,100723.41
2018-12-31T12:19:35.937Z,100718.12
2018-12-31T12:22:01.992Z,100703.67
2018-12-31T12:24:27.912Z,100694.05
2018-12-31T12:26:53.852Z,100688.80
2018-12-31T12:29:19.772Z,100692.73
2018-12-31T12:31:45.782Z,100676.58
2018-12-31T12:34:11.691Z,100674.02
2018-12-31T12:36:37.596Z,100651.77
2018-12-31T12:39:04.960Z,100640.42
2018-12-31T12:41:30.853Z,100631.70
2018-12-31T12:43:57.059Z,100644.91
2018-12-31T12:46:22.948Z,100614.34
2018-12-31T12:48:49.005Z,100604.79
2018-12-31T12:51:14.922Z,100606.14
2018-12-31T12:53:40.930Z,100594.80
2018-12-31T12:56:06.862Z,100576.50
2018-12-31T12:58:32.974Z,100620.72
2018-12-31T13:00:58.887Z,100584.88
2018-12-31T13:03:25.028Z,100579.70
2018-12-31T13:05:51.161Z,100569.23
2018-12-31T13:08:17.182Z,100552.62
2018-12-31T13:10:43.225Z,100531.19
2018-12-31T13:13:09.112Z,100538.62
2018-12-31T13:15:35.021Z,100570.95
2018-12-31T13:18:01.301Z,100524.63
2018-12-31T13:20:27.402Z,100518.94
2018-12-31T13:22:53.292Z,100498.37
2018-12-31T13:25:19.210Z,100487.41
2018-12-31T13:27:45.140Z,100467.36
2018-12-31T13:30:11.511Z,100467.36
2018-12-31T13:32:37.422Z,100475.16
2018-12-31T13:35:04.146Z,100448.47
2018-12-31T13:37:30.067Z,100452.84
2018-12-31T13:39:55.949Z,100429.70
2018-12-31T13:42:22.033Z,100409.11
2018-12-31T13:44:48.293Z,100407.75
2018-12-31T13:47:14.242Z,100399.44
2018-12-31T13:49:40.181Z,100390.73
2018-12-31T13:52:06.064Z,100385.48
2018-12-31T13:54:31.992Z,100409.55
2018-12-31T13:56:57.935Z,100368.86
2018-12-31T13:59:23.885Z,100382.46
2018-12-31T14:01:49.889Z,100372.80
2018-12-31T14:04:15.819Z,100361.42
2018-12-31T14:06:41.716Z,100349.09
2018-12-31T14:09:07.722Z,100355.22
2018-12-31T14:11:33.724Z,100355.22
2018-12-31T14:13:59.747Z,100338.55
2018-12-31T14:16:25.771Z,100324.13
2018-12-31T14:18:52.470Z,100317.12
2018-12-31T14:21:18.573Z,100251.09
2018-12-31T14:23:44.473Z,100286.45
2018-12-31T14:26:10.493Z,100289.52
2018-12-31T14:28:36.513Z,100275.04
2018-12-31T14:31:02.932Z,100260.61
2018-12-31T14:33:28.949Z,100250.98
2018-12-31T14:35:54.995Z,100234.83
2018-12-31T14:38:20.949Z,100245.73
2018-12-31T14:40:46.869Z,100218.17
2018-12-31T14:43:12.771Z,100212.48
2018-12-31T14:45:38.858Z,100207.63
2018-12-31T14:48:04.861Z,100205.91
2018-12-31T14:50:30.785Z,100205.96
2018-12-31T14:52:56.831Z,100166.11
2018-12-31T14:55:22.737Z,100166.11
2018-12-31T14:57:48.757Z,100151.23
2018-12-31T15:00:14.763Z,100149.01
2018-12-31T15:02:41.037Z,100130.19
2018-12-31T15:05:07.119Z,100135.05
2018-12-31T15:07:33.121Z,100122.32
2018-12-31T15:09:59.070Z,100097.39
2018-12-31T15:12:24.951Z,100099.56
2018-12-31T15:14:50.886Z,100083.77
2018-12-31T15:17:17.244Z,100066.66
2018-12-31T15:19:43.433Z,100055.24
2018-12-31T15:22:09.560Z,100032.44
2018-12-31T15:24:35.673Z,100021.52
2018-12-31T15:27:01.685Z,100028.94
2018-12-31T15:29:27.704Z,100028.55
2018-12-31T15:31:53.640Z,100015.77
2018-12-31T15:34:19.536Z,100003.95
2018-12-31T15:36:45.560Z,100012.23
2018-12-31T15:39:11.468Z,100011.78
2018-12-31T15:41:37.398Z,99999.58
2018-12-31T15:44:03.431Z,100002.59
2018-12-31T15:46:29.351Z,99984.22
2018-12-31T15:48:55.628Z,99977.61
2018-12-31T15:51:21.540Z,99967.97
2018-12-31T15:53:47.492Z,99956.55
2018-12-31T15:56:13.450Z,99952.95
2018-12-31T15:58:39.331Z,99967.81
2018-12-31T16:01:05.215Z,99949.49
2018-12-31T16:03:31.142Z,99939.83
2018-12-31T16:05:57.362Z,99916.15
2018-12-31T16:08:23.292Z,99920.95
2018-12-31T16:10:49.211Z,99872.72
2018-12-31T16:13:15.163Z,99901.66
2018-12-31T16:15:41.168Z,99892.41
2018-12-31T16:18:07.211Z,99890.16
2018-12-31T16:20:33.931Z,99893.17
2018-12-31T16:23:00.023Z,99874.30
2018-12-31T16:25:26.041Z,99882.06
2018-12-31T16:27:51.951Z,99864.07
2018-12-31T16:30:17.847Z,99860.55
2018-12-31T16:32:43.857Z,99847.38
2018-12-31T16:35:09.807Z,99847.31
2018-12-31T16:37:35.796Z,99838.90
2018-12-31T16:40:01.692Z,99833.65
2018-12-31T16:42:27.633Z,99810.44
2018-12-31T16:44:53.518Z,99807.75
2018-12-31T16:47:19.447Z,99784.51
2018-12-31T16:49:45.485Z,99786.69
2018-12-31T16:52:11.592Z,99780.06
2018-12-31T16:54:37.503Z,99797.08
2018-12-31T16:57:05.183Z,99769.89
2018-12-31T16:59:31.196Z,99770.28
2018-12-31T17:01:57.095Z,99767.59
2018-12-31T17:04:23.001Z,99753.15
2018-12-31T17:06:48.909Z,99740.44
2018-12-31T17:09:14.839Z,99738.20
2018-12-31T17:11:40.729Z,99732.02
2018-12-31T17:14:06.649Z,99739.45
2018-12-31T17:16:32.549Z,99727.13
2018-12-31T17:18:58.488Z,99730.14
2018-12-31T17:21:24.668Z,99723.95
2018-12-31T17:23:50.878Z,99717.33
2018-12-31T17:26:16.761Z,99712.82
2018-12-31T17:28:42.648Z,99693.98
2018-12-31T17:31:08.581Z,99692.19
2018-12-31T17:33:34.624Z,99689.98
2018-12-31T17:36:00.631Z,99680.73
2018-12-31T17:38:26.512Z,99672.40
2018-12-31T17:40:53.044Z,99657.95
2018-12-31T17:43:18.957Z,99660.96
2018-12-31T17:45:44.911Z,99646.00
2018-12-31T17:48:10.957Z,99645.52
2018-12-31T17:50:36.832Z,99634.50
2018-12-31T17:53:02.885Z,99635.75
2018-12-31T17:55:28.821Z,99634.82
2018-12-31T17:57:54.767Z,99624.25
2018-12-31T18:00:20.671Z,99637.33
2018-12-31T18:02:46.631Z,99613.61
2018-12-31T18:05:12.684Z,99612.71
2018-12-31T18:07:38.586Z,99610.47
2018-12-31T18:10:06.548Z,99598.58
2018-12-31T18:12:32.844Z,99591.08
2018-12-31T18:14:58.723Z,99601.46
2018-12-31T18:17:24.939Z,99597.52
2018-12-31T18:19:50.949Z,99589.57
2018-12-31T18:22:17.056Z,99580.72
2018-12-31T18:24:43.357Z,99573.16
2018-12-31T18:27:09.293Z,99572.64
2018-12-31T18:29:35.292Z,99563.44
2018-12-31T18:32:01.354Z,99558.50
2018-12-31T18:34:27.292Z,99553.24
2018-12-31T18:36:53.295Z,99546.67
2018-12-31T18:39:19.223Z,99545.36
2018-12-31T18:41:45.229Z,99537.48
2018-12-31T18:44:11.535Z,99519.94
2018-12-31T18:46:37.438Z,99518.56
2018-12-31T18:49:03.464Z,99511.06
2018-12-31T18:51:29.366Z,99505.34
2018-12-31T18:53:55.272Z,99501.27
2018-12-31T18:56:21.415Z,99493.84
2018-12-31T18:58:47.324Z,99485.50
2018-12-31T19:01:13.249Z,99477.55
2018-12-31T19:03:39.390Z,99467.89
2018-12-31T19:06:05.401Z,99456.45
2018-12-31T19:08:33.173Z,99439.81
2018-12-31T19:10:59.213Z,99437.59
2018-12-31T19:13:25.198Z,99429.70
2018-12-31T19:15:51.414Z,99435.34
2018-12-31T19:18:17.298Z,99434.89
2018-12-31T19:20:43.227Z,99433.96
2018-12-31T19:23:09.343Z,99429.50
2018-12-31T19:25:35.478Z,99428.56
2018-12-31T19:28:01.426Z,99418.42
2018-12-31T19:30:27.505Z,99407.01
2018-12-31T19:32:53.711Z,99407.31
2018-12-31T19:35:19.647Z,99387.14
2018-12-31T19:37:45.588Z,99396.66
2018-12-31T19:40:11.507Z,99382.58
2018-12-31T19:42:37.463Z,99389.63
2018-12-31T19:45:03.644Z,99372.92
2018-12-31T19:47:29.548Z,99374.23
2018-12-31T19:49:55.470Z,99370.67
2018-12-31T19:52:21.367Z,99355.23
2018-12-31T19:54:47.284Z,99348.59
2018-12-31T19:57:13.314Z,99343.63
2018-12-31T19:59:39.230Z,99347.91
2018-12-31T20:02:05.261Z,99336.38
2018-12-31T20:04:31.474Z,99331.98
2018-12-31T20:07:01.301Z,99322.30
2018-12-31T20:09:25.358Z,99307.91
2018-12-31T20:11:51.425Z,99305.77
2018-12-31T20:14:17.455Z,99306.92
2018-12-31T20:16:43.339Z,99305.13
2018-12-31T20:19:09.261Z,99302.91
2018-12-31T20:21:35.486Z,99290.59
2018-12-31T20:24:01.656Z,99291.90
2018-12-31T20:26:27.811Z,99291.83
2018-12-31T20:28:53.727Z,99277.28
2018-12-31T20:31:19.754Z,99260.19
2018-12-31T20:33:45.748Z,99271.12
2018-12-31T20:36:11.689Z,99254.40
2018-12-31T20:38:37.985Z,99235.45
2018-12-31T20:41:04.030Z,99219.27
2018-12-31T20:43:29.942Z,99223.63
2018-12-31T20:45:55.921Z,99214.50
2018-12-31T20:48:21.844Z,99203.48
2018-12-31T20:50:47.775Z,99206.98
2018-12-31T20:53:13.691Z,99201.27
2018-12-31T20:55:39.608Z,99201.72
2018-12-31T20:58:05.553Z,99196.38
2018-12-31T21:00:31.462Z,99191.50
2018-12-31T21:02:57.389Z,99182.77
2018-12-31T21:05:23.334Z,99169.14
2018-12-31T21:07:49.343Z,99165.19
2018-12-31T21:10:15.233Z,99168.69
2018-12-31T21:12:41.653Z,99166.05
2018-12-31T21:15:07.679Z,99161.73
2018-12-31T21:17:33.580Z,99166.51
2018-12-31T21:19:59.615Z,99163.95
2018-12-31T21:22:25.665Z,99170.45
2018-12-31T21:24:51.857Z,99165.19
2018-12-31T21:27:17.997Z,99160.34
2018-12-31T21:29:44.249Z,99163.72
2018-12-31T21:32:10.176Z,99151.51
2018-12-31T21:34:36.079Z,99134.78
2018-12-31T21:37:02.210Z,99145.80
2018-12-31T21:39:28.091Z,99135.73
2018-12-31T21:41:54.038Z,99136.59
2018-12-31T21:44:19.960Z,99136.10
2018-12-31T21:46:46.084Z,99123.81
2018-12-31T21:49:11.977Z,99114.60
2018-12-31T21:51:37.886Z,99126.73
2018-12-31T21:54:03.809Z,99130.30
2018-12-31T21:56:29.706Z,99121.88
2018-12-31T21:58:55.647Z,99104.38
2018-12-31T22:01:21.674Z,99102.23
2018-12-31T22:03:47.808Z,99111.44
2018-12-31T22:06:13.821Z,99108.81
2018-12-31T22:08:39.776Z,99103.06
2018-12-31T22:11:05.785Z,99104.00
2018-12-31T22:13:31.698Z,99101.37
2018-12-31T22:15:57.614Z,99097.05
2018-12-31T22:18:23.732Z,99097.51
2018-12-31T22:20:49.674Z,99096.56
2018-12-31T22:23:15.612Z,99091.39
2018-12-31T22:25:41.695Z,99079.55
2018-12-31T22:28:07.758Z,99072.69
2018-12-31T22:30:33.709Z,99084.52
2018-12-31T22:32:59.698Z,99061.02
2018-12-31T22:35:26.004Z,99059.78
2018-12-31T22:37:52.728Z,99055.55
2018-12-31T22:40:18.710Z,99057.69
2018-12-31T22:42:44.672Z,99048.11
2018-12-31T22:45:10.576Z,99042.39
2018-12-31T22:47:36.487Z,99046.34
2018-12-31T22:50:04.208Z,99038.37
2018-12-31T22:52:30.144Z,99044.08
2018-12-31T22:54:56.086Z,99040.14
2018-12-31T22:57:22.088Z,99026.13
2018-12-31T22:59:48.090Z,99022.10
2018-12-31T23:02:14.012Z,99015.08
2018-12-31T23:04:39.936Z,99008.13
2018-12-31T23:07:06.169Z,99001.63
2018-12-31T23:09:32.199Z,98993.42
2018-12-31T23:11:58.083Z,98996.63
2018-12-31T23:14:24.071Z,98986.19
2018-12-31T23:16:51.053Z,98978.30
2018-12-31T23:19:16.939Z,98973.04
2018-12-31T23:21:42.865Z,98968.61
2018-12-31T23:24:08.772Z,98962.98
2018-12-31T23:26:34.969Z,98964.30
2018-12-31T23:29:01.025Z,98956.94
2018-12-31T23:31:26.983Z,98948.97
2018-12-31T23:33:53.101Z,98943.71
2018-12-31T23:36:19.132Z,98939.23
2018-12-31T23:38:45.161Z,98923.91
2018-12-31T23:41:11.108Z,98924.39
2018-12-31T23:43:37.036Z,98924.85
2018-12-31T23:46:02.952Z,98924.85
2018-12-31T23:48:28.903Z,98915.19
2018-12-31T23:50:54.879Z,98896.79
2018-12-31T23:53:20.913Z,98901.19
2018-12-31T23:55:47.034Z,98898.56
2018-12-31T23:58:12.908Z,98883.73
